sensor_id;sensor_type;location;lat;lon;timestamp;P1;durP1;ratioP1;P2;durP2;ratioP2
7563;SDS011;3823;53.586;10.040;2023-04-03T05:01:57;6.40;;;2.42;;
7563;SDS011;3823;53.586;10.040;2023-04-03T05:04:22;8.20;;;3.30;;
7563;SDS011;3823;53.586;10.040;2023-04-03T05:06:48;12.05;;;4.82;;
7563;SDS011;3823;53.586;10.040;2023-04-03T05:09:14;9.38;;;3.47;;
7563;SDS011;3823;53.586;10.040;2023-04-03T05:11:39;4.85;;;3.30;;
7563;SDS011;3823;53.586;10.040;2023-04-03T05:14:05;5.55;;;3.00;;
7563;SDS011;3823;53.586;10.040;2023-04-03T05:16:31;7.50;;;2.70;;
7563;SDS011;3823;53.586;10.040;2023-04-03T05:18:57;7.15;;;2.95;;
7563;SDS011;3823;53.586;10.040;2023-04-03T05:21:23;4.25;;;2.30;;
7563;SDS011;3823;53.586;10.040;2023-04-03T05:23:51;2.42;;;2.22;;
7563;SDS011;3823;53.586;10.040;2023-04-03T05:26:16;9.02;;;3.40;;
7563;SDS011;3823;53.586;10.040;2023-04-03T05:28:42;4.70;;;2.83;;
7563;SDS011;3823;53.586;10.040;2023-04-03T05:31:08;3.25;;;2.22;;
7563;SDS011;3823;53.586;10.040;2023-04-03T05:33:34;5.32;;;2.88;;
7563;SDS011;3823;53.586;10.040;2023-04-03T05:36:06;5.57;;;2.72;;
7563;SDS011;3823;53.586;10.040;2023-04-03T05:38:32;4.65;;;2.50;;
7563;SDS011;3823;53.586;10.040;2023-04-03T05:40:58;3.03;;;2.33;;
7563;SDS011;3823;53.586;10.040;2023-04-03T05:43:23;6.68;;;2.45;;
7563;SDS011;3823;53.586;10.040;2023-04-03T05:45:49;7.15;;;3.47;;
7563;SDS011;3823;53.586;10.040;2023-04-03T05:48:16;6.40;;;3.40;;
7563;SDS011;3823;53.586;10.040;2023-04-03T05:50:41;14.00;;;3.22;;
7563;SDS011;3823;53.586;10.040;2023-04-03T05:53:12;5.68;;;2.80;;
7563;SDS011;3823;53.586;10.040;2023-04-03T05:55:43;6.85;;;2.30;;
7563;SDS011;3823;53.586;10.040;2023-04-03T05:58:08;10.15;;;3.08;;
7563;SDS011;3823;53.586;10.040;2023-04-03T06:00:34;4.57;;;2.25;;
7563;SDS011;3823;53.586;10.040;2023-04-03T06:02:59;4.75;;;2.90;;
7563;SDS011;3823;53.586;10.040;2023-04-03T06:05:25;7.93;;;2.75;;
7563;SDS011;3823;53.586;10.040;2023-04-03T06:07:51;12.70;;;3.13;;
7563;SDS011;3823;53.586;10.040;2023-04-03T06:10:16;7.32;;;3.40;;
7563;SDS011;3823;53.586;10.040;2023-04-03T06:12:42;7.13;;;2.80;;
7563;SDS011;3823;53.586;10.040;2023-04-03T06:15:08;6.70;;;2.75;;
7563;SDS011;3823;53.586;10.040;2023-04-03T06:17:35;4.90;;;2.83;;
7563;SDS011;3823;53.586;10.040;2023-04-03T06:20:02;6.88;;;2.08;;
7563;SDS011;3823;53.586;10.040;2023-04-03T06:22:28;9.60;;;2.08;;
7563;SDS011;3823;53.586;10.040;2023-04-03T06:24:55;6.70;;;2.70;;
7563;SDS011;3823;53.586;10.040;2023-04-03T06:27:21;7.93;;;3.08;;
7563;SDS011;3823;53.586;10.040;2023-04-03T06:29:46;5.38;;;2.03;;
7563;SDS011;3823;53.586;10.040;2023-04-03T06:32:12;6.50;;;2.42;;
7563;SDS011;3823;53.586;10.040;2023-04-03T06:34:38;4.60;;;2.58;;
7563;SDS011;3823;53.586;10.040;2023-04-03T06:37:04;6.45;;;3.05;;
7563;SDS011;3823;53.586;10.040;2023-04-03T06:39:30;6.68;;;2.55;;
7563;SDS011;3823;53.586;10.040;2023-04-03T06:41:55;5.78;;;2.15;;
7563;SDS011;3823;53.586;10.040;2023-04-03T06:44:21;13.02;;;2.95;;
7563;SDS011;3823;53.586;10.040;2023-04-03T06:46:46;6.28;;;2.53;;
7563;SDS011;3823;53.586;10.040;2023-04-03T06:49:13;5.55;;;2.72;;
7563;SDS011;3823;53.586;10.040;2023-04-03T06:51:39;6.70;;;2.30;;
7563;SDS011;3823;53.586;10.040;2023-04-03T06:54:06;4.95;;;2.40;;
7563;SDS011;3823;53.586;10.040;2023-04-03T06:56:33;5.10;;;2.45;;
7563;SDS011;3823;53.586;10.040;2023-04-03T06:58:59;5.43;;;1.52;;
7563;SDS011;3823;53.586;10.040;2023-04-03T07:01:26;10.63;;;2.40;;
7563;SDS011;3823;53.586;10.040;2023-04-03T07:03:53;2.72;;;1.20;;
7563;SDS011;3823;53.586;10.040;2023-04-03T07:06:21;2.95;;;2.15;;
7563;SDS011;3823;53.586;10.040;2023-04-03T07:08:47;2.88;;;1.38;;
7563;SDS011;3823;53.586;10.040;2023-04-03T07:11:14;4.25;;;1.25;;
7563;SDS011;3823;53.586;10.040;2023-04-03T07:13:40;7.25;;;1.50;;
7563;SDS011;3823;53.586;10.040;2023-04-03T07:16:06;6.25;;;1.67;;
7563;SDS011;3823;53.586;10.040;2023-04-03T07:18:32;4.68;;;1.88;;
7563;SDS011;3823;53.586;10.040;2023-04-03T07:20:58;5.38;;;2.20;;
7563;SDS011;3823;53.586;10.040;2023-04-03T07:23:24;2.92;;;1.10;;
7563;SDS011;3823;53.586;10.040;2023-04-03T07:25:50;2.90;;;1.67;;
7563;SDS011;3823;53.586;10.040;2023-04-03T07:28:17;5.03;;;1.60;;
7563;SDS011;3823;53.586;10.040;2023-04-03T07:30:47;4.22;;;1.17;;
7563;SDS011;3823;53.586;10.040;2023-04-03T07:33:15;3.40;;;1.52;;
7563;SDS011;3823;53.586;10.040;2023-04-03T07:35:42;3.90;;;1.90;;
7563;SDS011;3823;53.586;10.040;2023-04-03T07:38:08;1.75;;;1.35;;
7563;SDS011;3823;53.586;10.040;2023-04-03T07:40:34;5.10;;;1.38;;
7563;SDS011;3823;53.586;10.040;2023-04-03T07:43:01;3.20;;;1.33;;
7563;SDS011;3823;53.586;10.040;2023-04-03T07:45:27;1.83;;;1.00;;
7563;SDS011;3823;53.586;10.040;2023-04-03T07:47:52;4.30;;;1.10;;
7563;SDS011;3823;53.586;10.040;2023-04-03T07:50:18;3.90;;;1.10;;
7563;SDS011;3823;53.586;10.040;2023-04-03T07:52:44;1.88;;;1.00;;
7563;SDS011;3823;53.586;10.040;2023-04-03T07:55:11;2.35;;;1.15;;
7563;SDS011;3823;53.586;10.040;2023-04-03T07:57:37;2.08;;;1.25;;
7563;SDS011;3823;53.586;10.040;2023-04-03T08:00:03;2.78;;;1.13;;
7563;SDS011;3823;53.586;10.040;2023-04-03T08:02:32;3.47;;;1.10;;
7563;SDS011;3823;53.586;10.040;2023-04-03T08:04:58;1.95;;;1.08;;
7563;SDS011;3823;53.586;10.040;2023-04-03T08:07:23;8.73;;;1.65;;
7563;SDS011;3823;53.586;10.040;2023-04-03T08:09:50;2.88;;;1.13;;
7563;SDS011;3823;53.586;10.040;2023-04-03T08:12:15;2.42;;;1.08;;
7563;SDS011;3823;53.586;10.040;2023-04-03T08:14:41;3.10;;;1.17;;
7563;SDS011;3823;53.586;10.040;2023-04-03T08:17:07;3.88;;;1.30;;
7563;SDS011;3823;53.586;10.040;2023-04-03T08:19:36;2.17;;;1.45;;
7563;SDS011;3823;53.586;10.040;2023-04-03T08:22:05;2.90;;;0.80;;
7563;SDS011;3823;53.586;10.040;2023-04-03T08:24:32;7.43;;;1.13;;
7563;SDS011;3823;53.586;10.040;2023-04-03T08:26:58;6.40;;;1.58;;
7563;SDS011;3823;53.586;10.040;2023-04-03T08:29:24;3.10;;;1.30;;
7563;SDS011;3823;53.586;10.040;2023-04-03T08:31:50;1.30;;;0.90;;
7563;SDS011;3823;53.586;10.040;2023-04-03T08:34:16;2.53;;;1.00;;
7563;SDS011;3823;53.586;10.040;2023-04-03T08:36:42;2.65;;;1.30;;
7563;SDS011;3823;53.586;10.040;2023-04-03T08:39:08;1.80;;;0.70;;
7563;SDS011;3823;53.586;10.040;2023-04-03T08:41:34;2.50;;;0.82;;
7563;SDS011;3823;53.586;10.040;2023-04-03T08:44:12;4.43;;;1.00;;
7563;SDS011;3823;53.586;10.040;2023-04-03T08:49:42;1.98;;;0.75;;
7563;SDS011;3823;53.586;10.040;2023-04-03T08:52:14;5.25;;;1.63;;
7563;SDS011;3823;53.586;10.040;2023-04-03T08:54:51;1.40;;;0.68;;
7563;SDS011;3823;53.586;10.040;2023-04-03T08:57:25;4.05;;;1.75;;
7563;SDS011;3823;53.586;10.040;2023-04-03T08:59:59;2.05;;;0.80;;
7563;SDS011;3823;53.586;10.040;2023-04-03T09:02:41;4.78;;;1.08;;
7563;SDS011;3823;53.586;10.040;2023-04-03T09:05:19;1.50;;;0.63;;
7563;SDS011;3823;53.586;10.040;2023-04-03T09:07:59;2.50;;;0.80;;
7563;SDS011;3823;53.586;10.040;2023-04-03T09:10:32;2.05;;;1.00;;
7563;SDS011;3823;53.586;10.040;2023-04-03T09:13:08;1.92;;;1.10;;
7563;SDS011;3823;53.586;10.040;2023-04-03T09:15:44;1.30;;;0.77;;
7563;SDS011;3823;53.586;10.040;2023-04-03T09:20:45;3.80;;;0.88;;
7563;SDS011;3823;53.586;10.040;2023-04-03T09:25:45;3.28;;;0.90;;
7563;SDS011;3823;53.586;10.040;2023-04-03T09:28:11;2.72;;;1.08;;
7563;SDS011;3823;53.586;10.040;2023-04-03T09:30:37;1.40;;;0.90;;
7563;SDS011;3823;53.586;10.040;2023-04-03T09:33:03;1.23;;;0.65;;
7563;SDS011;3823;53.586;10.040;2023-04-03T09:35:31;2.60;;;0.70;;
7563;SDS011;3823;53.586;10.040;2023-04-03T09:37:59;7.63;;;1.00;;
7563;SDS011;3823;53.586;10.040;2023-04-03T09:40:38;3.75;;;0.63;;
7563;SDS011;3823;53.586;10.040;2023-04-03T09:45:51;3.20;;;1.00;;
7563;SDS011;3823;53.586;10.040;2023-04-03T09:48:22;3.05;;;0.90;;
7563;SDS011;3823;53.586;10.040;2023-04-03T09:56:18;1.95;;;0.60;;
7563;SDS011;3823;53.586;10.040;2023-04-03T09:59:29;1.30;;;0.60;;
7563;SDS011;3823;53.586;10.040;2023-04-03T10:01:41;1.60;;;0.55;;
7563;SDS011;3823;53.586;10.040;2023-04-03T10:04:22;3.95;;;0.60;;
7563;SDS011;3823;53.586;10.040;2023-04-03T10:06:50;2.65;;;0.55;;
7563;SDS011;3823;53.586;10.040;2023-04-03T10:09:25;1.88;;;1.23;;
7563;SDS011;3823;53.586;10.040;2023-04-03T10:12:09;1.38;;;0.50;;
7563;SDS011;3823;53.586;10.040;2023-04-03T10:14:40;6.35;;;1.00;;
7563;SDS011;3823;53.586;10.040;2023-04-03T10:17:26;2.38;;;1.00;;
7563;SDS011;3823;53.586;10.040;2023-04-03T10:22:47;1.20;;;0.73;;
7563;SDS011;3823;53.586;10.040;2023-04-03T10:31:15;1.45;;;0.60;;
7563;SDS011;3823;53.586;10.040;2023-04-03T10:39:39;2.00;;;0.80;;
7563;SDS011;3823;53.586;10.040;2023-04-03T10:42:18;3.92;;;0.73;;
7563;SDS011;3823;53.586;10.040;2023-04-03T10:44:52;2.30;;;0.73;;
7563;SDS011;3823;53.586;10.040;2023-04-03T10:55:37;1.42;;;0.82;;
7563;SDS011;3823;53.586;10.040;2023-04-03T10:58:41;3.20;;;0.95;;
7563;SDS011;3823;53.586;10.040;2023-04-03T11:01:09;2.53;;;0.98;;
7563;SDS011;3823;53.586;10.040;2023-04-03T11:03:40;2.22;;;1.05;;
7563;SDS011;3823;53.586;10.040;2023-04-03T11:06:19;2.13;;;1.25;;
7563;SDS011;3823;53.586;10.040;2023-04-03T11:08:50;2.22;;;1.35;;
7563;SDS011;3823;53.586;10.040;2023-04-03T11:11:26;4.00;;;1.58;;
7563;SDS011;3823;53.586;10.040;2023-04-03T11:13:56;2.40;;;1.23;;
7563;SDS011;3823;53.586;10.040;2023-04-03T11:16:27;1.73;;;1.02;;
7563;SDS011;3823;53.586;10.040;2023-04-03T11:18:59;2.60;;;0.90;;
7563;SDS011;3823;53.586;10.040;2023-04-03T11:21:34;6.47;;;2.35;;
7563;SDS011;3823;53.586;10.040;2023-04-03T11:24:15;6.40;;;1.85;;
7563;SDS011;3823;53.586;10.040;2023-04-03T11:26:47;1.60;;;0.90;;
7563;SDS011;3823;53.586;10.040;2023-04-03T11:29:17;4.82;;;1.17;;
7563;SDS011;3823;53.586;10.040;2023-04-03T11:34:37;2.53;;;1.55;;
7563;SDS011;3823;53.586;10.040;2023-04-03T11:40:48;2.88;;;1.10;;
7563;SDS011;3823;53.586;10.040;2023-04-03T11:43:02;3.10;;;1.20;;
7563;SDS011;3823;53.586;10.040;2023-04-03T11:45:51;3.17;;;1.00;;
7563;SDS011;3823;53.586;10.040;2023-04-03T11:55:58;1.90;;;0.80;;
7563;SDS011;3823;53.586;10.040;2023-04-03T11:58:30;2.58;;;0.90;;
7563;SDS011;3823;53.586;10.040;2023-04-03T12:05:55;1.77;;;0.65;;
7563;SDS011;3823;53.586;10.040;2023-04-03T12:08:26;3.30;;;0.82;;
7563;SDS011;3823;53.586;10.040;2023-04-03T12:11:13;1.65;;;1.08;;
7563;SDS011;3823;53.586;10.040;2023-04-03T12:16:20;2.65;;;0.85;;
7563;SDS011;3823;53.586;10.040;2023-04-03T12:29:53;2.05;;;1.33;;
7563;SDS011;3823;53.586;10.040;2023-04-03T12:38:17;2.20;;;0.90;;
7563;SDS011;3823;53.586;10.040;2023-04-03T12:48:47;1.92;;;0.70;;
7563;SDS011;3823;53.586;10.040;2023-04-03T12:51:23;1.30;;;0.82;;
7563;SDS011;3823;53.586;10.040;2023-04-03T12:59:44;1.30;;;0.85;;
7563;SDS011;3823;53.586;10.040;2023-04-03T13:02:25;2.35;;;0.95;;
7563;SDS011;3823;53.586;10.040;2023-04-03T13:04:58;6.57;;;1.70;;
7563;SDS011;3823;53.586;10.040;2023-04-03T13:07:34;4.65;;;0.93;;
7563;SDS011;3823;53.586;10.040;2023-04-03T13:12:35;2.97;;;0.77;;
7563;SDS011;3823;53.586;10.040;2023-04-03T13:15:40;2.00;;;0.88;;
7563;SDS011;3823;53.586;10.040;2023-04-03T13:18:10;3.78;;;1.50;;
7563;SDS011;3823;53.586;10.040;2023-04-03T13:20:47;4.18;;;1.48;;
7563;SDS011;3823;53.586;10.040;2023-04-03T13:23:13;1.92;;;1.38;;
7563;SDS011;3823;53.586;10.040;2023-04-03T13:25:43;3.88;;;1.15;;
7563;SDS011;3823;53.586;10.040;2023-04-03T13:28:15;4.03;;;1.08;;
7563;SDS011;3823;53.586;10.040;2023-04-03T13:30:58;3.25;;;1.23;;
7563;SDS011;3823;53.586;10.040;2023-04-03T13:33:28;1.83;;;0.90;;
7563;SDS011;3823;53.586;10.040;2023-04-03T13:35:58;7.60;;;0.88;;
7563;SDS011;3823;53.586;10.040;2023-04-03T13:38:29;2.08;;;0.85;;
7563;SDS011;3823;53.586;10.040;2023-04-03T13:41:00;2.50;;;1.20;;
7563;SDS011;3823;53.586;10.040;2023-04-03T13:43:36;3.67;;;1.08;;
7563;SDS011;3823;53.586;10.040;2023-04-03T13:48:38;4.38;;;0.70;;
7563;SDS011;3823;53.586;10.040;2023-04-03T13:53:57;2.88;;;0.95;;
7563;SDS011;3823;53.586;10.040;2023-04-03T13:56:30;5.40;;;0.88;;
7563;SDS011;3823;53.586;10.040;2023-04-03T14:04:20;1.20;;;0.50;;
7563;SDS011;3823;53.586;10.040;2023-04-03T14:06:48;1.58;;;1.05;;
7563;SDS011;3823;53.586;10.040;2023-04-03T14:09:15;2.50;;;1.02;;
7563;SDS011;3823;53.586;10.040;2023-04-03T14:11:42;1.17;;;0.80;;
7563;SDS011;3823;53.586;10.040;2023-04-03T14:14:13;1.40;;;1.00;;
7563;SDS011;3823;53.586;10.040;2023-04-03T14:16:48;2.63;;;0.70;;
7563;SDS011;3823;53.586;10.040;2023-04-03T14:19:19;1.60;;;0.85;;
7563;SDS011;3823;53.586;10.040;2023-04-03T14:21:57;2.22;;;0.90;;
7563;SDS011;3823;53.586;10.040;2023-04-03T14:24:24;1.40;;;0.90;;
7563;SDS011;3823;53.586;10.040;2023-04-03T14:26:51;1.63;;;1.02;;
7563;SDS011;3823;53.586;10.040;2023-04-03T14:29:18;2.92;;;0.60;;
7563;SDS011;3823;53.586;10.040;2023-04-03T14:31:45;4.53;;;0.90;;
7563;SDS011;3823;53.586;10.040;2023-04-03T14:34:12;2.33;;;0.75;;
7563;SDS011;3823;53.586;10.040;2023-04-03T14:36:39;5.18;;;0.70;;
7563;SDS011;3823;53.586;10.040;2023-04-03T14:39:07;3.83;;;0.90;;
7563;SDS011;3823;53.586;10.040;2023-04-03T14:41:36;5.55;;;0.88;;
7563;SDS011;3823;53.586;10.040;2023-04-03T14:44:02;1.25;;;0.63;;
7563;SDS011;3823;53.586;10.040;2023-04-03T14:46:29;1.58;;;1.42;;
7563;SDS011;3823;53.586;10.040;2023-04-03T14:48:57;1.65;;;0.70;;
7563;SDS011;3823;53.586;10.040;2023-04-03T14:51:23;1.50;;;0.90;;
7563;SDS011;3823;53.586;10.040;2023-04-03T14:53:49;7.20;;;2.15;;
7563;SDS011;3823;53.586;10.040;2023-04-03T14:56:24;2.20;;;0.90;;
7563;SDS011;3823;53.586;10.040;2023-04-03T14:58:56;2.45;;;0.90;;
7563;SDS011;3823;53.586;10.040;2023-04-03T15:01:24;7.03;;;1.23;;
7563;SDS011;3823;53.586;10.040;2023-04-03T15:03:50;2.90;;;1.08;;
7563;SDS011;3823;53.586;10.040;2023-04-03T15:06:15;3.88;;;1.13;;
7563;SDS011;3823;53.586;10.040;2023-04-03T15:08:42;4.35;;;2.00;;
7563;SDS011;3823;53.586;10.040;2023-04-03T15:11:09;3.92;;;1.10;;
7563;SDS011;3823;53.586;10.040;2023-04-03T15:13:36;4.00;;;0.88;;
7563;SDS011;3823;53.586;10.040;2023-04-03T15:16:02;2.05;;;0.93;;
7563;SDS011;3823;53.586;10.040;2023-04-03T15:18:30;1.90;;;1.63;;
7563;SDS011;3823;53.586;10.040;2023-04-03T15:21:02;2.47;;;1.25;;
7563;SDS011;3823;53.586;10.040;2023-04-03T15:23:27;3.47;;;1.13;;
7563;SDS011;3823;53.586;10.040;2023-04-03T15:25:55;2.38;;;1.20;;
7563;SDS011;3823;53.586;10.040;2023-04-03T15:28:28;2.47;;;1.20;;
7563;SDS011;3823;53.586;10.040;2023-04-03T15:30:57;2.58;;;1.45;;
7563;SDS011;3823;53.586;10.040;2023-04-03T15:33:23;2.05;;;1.10;;
7563;SDS011;3823;53.586;10.040;2023-04-03T15:35:50;1.65;;;0.90;;
7563;SDS011;3823;53.586;10.040;2023-04-03T15:38:15;2.58;;;0.73;;
7563;SDS011;3823;53.586;10.040;2023-04-03T15:40:41;4.30;;;1.10;;
7563;SDS011;3823;53.586;10.040;2023-04-03T15:43:08;4.72;;;1.58;;
7563;SDS011;3823;53.586;10.040;2023-04-03T15:45:35;1.98;;;1.02;;
7563;SDS011;3823;53.586;10.040;2023-04-03T15:48:02;2.47;;;1.30;;
7563;SDS011;3823;53.586;10.040;2023-04-03T15:50:28;5.50;;;1.92;;
7563;SDS011;3823;53.586;10.040;2023-04-03T15:52:54;4.10;;;1.25;;
7563;SDS011;3823;53.586;10.040;2023-04-03T15:55:21;3.08;;;1.40;;
7563;SDS011;3823;53.586;10.040;2023-04-03T15:57:47;4.20;;;1.35;;
7563;SDS011;3823;53.586;10.040;2023-04-03T16:00:13;1.95;;;1.13;;
7563;SDS011;3823;53.586;10.040;2023-04-03T16:02:39;3.15;;;0.85;;
7563;SDS011;3823;53.586;10.040;2023-04-03T16:05:05;2.30;;;0.98;;
7563;SDS011;3823;53.586;10.040;2023-04-03T16:07:31;3.28;;;1.30;;
7563;SDS011;3823;53.586;10.040;2023-04-03T16:09:57;2.40;;;1.10;;
7563;SDS011;3823;53.586;10.040;2023-04-03T16:12:23;1.77;;;1.10;;
7563;SDS011;3823;53.586;10.040;2023-04-03T16:14:48;1.80;;;0.90;;
7563;SDS011;3823;53.586;10.040;2023-04-03T16:17:14;1.90;;;0.82;;
7563;SDS011;3823;53.586;10.040;2023-04-03T16:19:40;3.83;;;1.13;;
7563;SDS011;3823;53.586;10.040;2023-04-03T16:22:05;2.88;;;1.25;;
7563;SDS011;3823;53.586;10.040;2023-04-03T16:24:31;1.80;;;1.20;;
7563;SDS011;3823;53.586;10.040;2023-04-03T16:26:57;2.42;;;1.20;;
7563;SDS011;3823;53.586;10.040;2023-04-03T16:29:23;4.03;;;1.27;;
7563;SDS011;3823;53.586;10.040;2023-04-03T16:31:48;2.15;;;1.40;;
7563;SDS011;3823;53.586;10.040;2023-04-03T16:34:14;1.90;;;1.30;;
7563;SDS011;3823;53.586;10.040;2023-04-03T16:36:41;5.32;;;1.25;;
7563;SDS011;3823;53.586;10.040;2023-04-03T16:39:06;2.53;;;0.95;;
7563;SDS011;3823;53.586;10.040;2023-04-03T16:41:34;4.10;;;1.70;;
7563;SDS011;3823;53.586;10.040;2023-04-03T16:44:00;3.40;;;1.30;;
7563;SDS011;3823;53.586;10.040;2023-04-03T16:46:26;10.65;;;1.63;;
7563;SDS011;3823;53.586;10.040;2023-04-03T16:48:51;1.58;;;1.48;;
7563;SDS011;3823;53.586;10.040;2023-04-03T16:51:17;2.08;;;1.52;;
7563;SDS011;3823;53.586;10.040;2023-04-03T16:53:42;3.38;;;1.52;;
7563;SDS011;3823;53.586;10.040;2023-04-03T16:56:08;6.57;;;1.10;;
7563;SDS011;3823;53.586;10.040;2023-04-03T16:58:33;3.05;;;1.10;;
7563;SDS011;3823;53.586;10.040;2023-04-03T17:01:07;8.80;;;1.30;;
7563;SDS011;3823;53.586;10.040;2023-04-03T17:03:40;2.42;;;1.35;;
7563;SDS011;3823;53.586;10.040;2023-04-03T17:06:06;1.88;;;1.02;;
7563;SDS011;3823;53.586;10.040;2023-04-03T17:08:31;4.43;;;2.40;;
7563;SDS011;3823;53.586;10.040;2023-04-03T17:10:57;2.58;;;1.50;;
7563;SDS011;3823;53.586;10.040;2023-04-03T17:13:23;11.70;;;2.28;;
7563;SDS011;3823;53.586;10.040;2023-04-03T17:15:51;2.30;;;1.40;;
7563;SDS011;3823;53.586;10.040;2023-04-03T17:18:17;8.75;;;3.10;;
7563;SDS011;3823;53.586;10.040;2023-04-03T17:20:42;4.28;;;2.00;;
7563;SDS011;3823;53.586;10.040;2023-04-03T17:23:08;3.75;;;1.77;;
7563;SDS011;3823;53.586;10.040;2023-04-03T17:25:33;4.30;;;2.38;;
7563;SDS011;3823;53.586;10.040;2023-04-03T17:27:59;2.97;;;1.17;;
7563;SDS011;3823;53.586;10.040;2023-04-03T17:30:24;5.47;;;3.25;;
7563;SDS011;3823;53.586;10.040;2023-04-03T17:32:50;5.78;;;3.35;;
7563;SDS011;3823;53.586;10.040;2023-04-03T17:35:16;7.30;;;1.42;;
7563;SDS011;3823;53.586;10.040;2023-04-03T17:37:41;2.35;;;1.50;;
7563;SDS011;3823;53.586;10.040;2023-04-03T17:40:07;2.20;;;2.00;;
7563;SDS011;3823;53.586;10.040;2023-04-03T17:42:33;4.50;;;1.05;;
7563;SDS011;3823;53.586;10.040;2023-04-03T17:44:58;4.60;;;0.90;;
7563;SDS011;3823;53.586;10.040;2023-04-03T17:47:25;4.72;;;1.50;;
7563;SDS011;3823;53.586;10.040;2023-04-03T17:49:51;4.30;;;2.63;;
7563;SDS011;3823;53.586;10.040;2023-04-03T17:52:16;6.13;;;3.72;;
7563;SDS011;3823;53.586;10.040;2023-04-03T17:54:42;2.65;;;1.73;;
7563;SDS011;3823;53.586;10.040;2023-04-03T17:57:07;3.47;;;1.30;;
7563;SDS011;3823;53.586;10.040;2023-04-03T17:59:33;3.13;;;1.10;;
7563;SDS011;3823;53.586;10.040;2023-04-03T18:01:59;2.38;;;1.42;;
7563;SDS011;3823;53.586;10.040;2023-04-03T18:04:24;1.85;;;1.35;;
7563;SDS011;3823;53.586;10.040;2023-04-03T18:06:50;4.40;;;1.85;;
7563;SDS011;3823;53.586;10.040;2023-04-03T18:09:20;5.47;;;1.50;;
7563;SDS011;3823;53.586;10.040;2023-04-03T18:11:49;3.00;;;1.63;;
7563;SDS011;3823;53.586;10.040;2023-04-03T18:14:16;1.30;;;1.05;;
7563;SDS011;3823;53.586;10.040;2023-04-03T18:16:45;7.38;;;1.83;;
7563;SDS011;3823;53.586;10.040;2023-04-03T18:19:11;6.28;;;2.13;;
7563;SDS011;3823;53.586;10.040;2023-04-03T18:21:36;17.45;;;5.35;;
7563;SDS011;3823;53.586;10.040;2023-04-03T18:24:03;5.75;;;3.20;;
7563;SDS011;3823;53.586;10.040;2023-04-03T18:26:31;3.13;;;1.77;;
7563;SDS011;3823;53.586;10.040;2023-04-03T18:28:59;3.47;;;2.38;;
7563;SDS011;3823;53.586;10.040;2023-04-03T18:31:26;5.05;;;2.25;;
7563;SDS011;3823;53.586;10.040;2023-04-03T18:33:54;2.80;;;2.20;;
7563;SDS011;3823;53.586;10.040;2023-04-03T18:36:22;4.82;;;1.67;;
7563;SDS011;3823;53.586;10.040;2023-04-03T18:38:48;8.52;;;2.65;;
7563;SDS011;3823;53.586;10.040;2023-04-03T18:41:14;8.05;;;2.42;;
7563;SDS011;3823;53.586;10.040;2023-04-03T18:43:40;11.20;;;3.05;;
7563;SDS011;3823;53.586;10.040;2023-04-03T18:46:05;7.13;;;4.25;;
7563;SDS011;3823;53.586;10.040;2023-04-03T18:48:32;3.70;;;2.72;;
7563;SDS011;3823;53.586;10.040;2023-04-03T18:50:58;3.10;;;2.10;;
7563;SDS011;3823;53.586;10.040;2023-04-03T18:53:25;5.80;;;2.58;;
7563;SDS011;3823;53.586;10.040;2023-04-03T18:55:50;5.70;;;2.35;;
7563;SDS011;3823;53.586;10.040;2023-04-03T18:58:16;3.58;;;1.75;;
7563;SDS011;3823;53.586;10.040;2023-04-03T19:00:41;3.70;;;1.77;;
7563;SDS011;3823;53.586;10.040;2023-04-03T19:03:08;2.92;;;1.85;;
7563;SDS011;3823;53.586;10.040;2023-04-03T19:05:35;2.75;;;2.33;;
7563;SDS011;3823;53.586;10.040;2023-04-03T19:08:01;5.10;;;2.25;;
7563;SDS011;3823;53.586;10.040;2023-04-03T19:10:27;6.07;;;1.83;;
7563;SDS011;3823;53.586;10.040;2023-04-03T19:12:52;3.92;;;1.67;;
7563;SDS011;3823;53.586;10.040;2023-04-03T19:15:19;3.22;;;1.23;;
7563;SDS011;3823;53.586;10.040;2023-04-03T19:17:46;3.42;;;1.85;;
7563;SDS011;3823;53.586;10.040;2023-04-03T19:20:11;4.45;;;2.10;;
7563;SDS011;3823;53.586;10.040;2023-04-03T19:22:38;8.52;;;2.40;;
7563;SDS011;3823;53.586;10.040;2023-04-03T19:25:05;3.42;;;2.17;;
7563;SDS011;3823;53.586;10.040;2023-04-03T19:27:32;4.65;;;2.20;;
7563;SDS011;3823;53.586;10.040;2023-04-03T19:29:58;5.97;;;2.08;;
7563;SDS011;3823;53.586;10.040;2023-04-03T19:32:24;3.60;;;1.65;;
7563;SDS011;3823;53.586;10.040;2023-04-03T19:34:50;2.33;;;1.83;;
7563;SDS011;3823;53.586;10.040;2023-04-03T19:37:16;3.40;;;1.75;;
7563;SDS011;3823;53.586;10.040;2023-04-03T19:39:42;4.30;;;2.17;;
7563;SDS011;3823;53.586;10.040;2023-04-03T19:42:08;4.60;;;2.10;;
7563;SDS011;3823;53.586;10.040;2023-04-03T19:44:34;3.58;;;2.28;;
7563;SDS011;3823;53.586;10.040;2023-04-03T19:47:01;4.40;;;1.67;;
7563;SDS011;3823;53.586;10.040;2023-04-03T19:49:27;4.05;;;2.17;;
7563;SDS011;3823;53.586;10.040;2023-04-03T19:51:53;3.28;;;1.70;;
7563;SDS011;3823;53.586;10.040;2023-04-03T19:54:19;2.67;;;1.70;;
7563;SDS011;3823;53.586;10.040;2023-04-03T19:56:46;3.50;;;1.75;;
7563;SDS011;3823;53.586;10.040;2023-04-03T19:59:11;4.97;;;1.88;;
7563;SDS011;3823;53.586;10.040;2023-04-03T20:01:37;4.22;;;1.42;;
7563;SDS011;3823;53.586;10.040;2023-04-03T20:04:03;5.50;;;2.70;;
7563;SDS011;3823;53.586;10.040;2023-04-03T20:06:29;2.80;;;1.75;;
7563;SDS011;3823;53.586;10.040;2023-04-03T20:08:55;6.70;;;2.70;;
7563;SDS011;3823;53.586;10.040;2023-04-03T20:11:20;6.57;;;2.28;;
7563;SDS011;3823;53.586;10.040;2023-04-03T20:13:47;4.63;;;2.20;;
7563;SDS011;3823;53.586;10.040;2023-04-03T20:16:14;3.35;;;1.98;;
7563;SDS011;3823;53.586;10.040;2023-04-03T20:18:39;4.22;;;1.90;;
7563;SDS011;3823;53.586;10.040;2023-04-03T20:21:06;8.82;;;3.10;;
7563;SDS011;3823;53.586;10.040;2023-04-03T20:23:32;3.05;;;2.08;;
7563;SDS011;3823;53.586;10.040;2023-04-03T20:26:00;7.13;;;3.58;;
7563;SDS011;3823;53.586;10.040;2023-04-03T20:28:28;4.15;;;2.20;;
7563;SDS011;3823;53.586;10.040;2023-04-03T20:30:54;2.92;;;2.55;;
7563;SDS011;3823;53.586;10.040;2023-04-03T20:33:20;5.43;;;3.15;;
7563;SDS011;3823;53.586;10.040;2023-04-03T20:35:46;4.22;;;1.95;;
7563;SDS011;3823;53.586;10.040;2023-04-03T20:38:13;3.83;;;2.47;;
7563;SDS011;3823;53.586;10.040;2023-04-03T20:40:39;4.90;;;1.88;;
7563;SDS011;3823;53.586;10.040;2023-04-03T20:43:05;4.10;;;2.45;;
7563;SDS011;3823;53.586;10.040;2023-04-03T20:45:31;2.97;;;2.40;;
7563;SDS011;3823;53.586;10.040;2023-04-03T20:47:57;4.72;;;2.42;;
7563;SDS011;3823;53.586;10.040;2023-04-03T20:50:24;4.60;;;2.50;;
7563;SDS011;3823;53.586;10.040;2023-04-03T20:52:51;5.43;;;2.65;;
7563;SDS011;3823;53.586;10.040;2023-04-03T20:55:18;3.90;;;2.95;;
7563;SDS011;3823;53.586;10.040;2023-04-03T20:57:44;3.63;;;2.63;;
